createdAt,value
2023-03-27T00:01:30.793Z,96613.80
2023-03-27T00:03:59.853Z,96610.46
2023-03-27T00:06:28.306Z,96608.02
2023-03-27T00:08:56.662Z,96605.30
2023-03-27T00:11:25.287Z,96595.84
2023-03-27T00:13:55.003Z,96593.16
2023-03-27T00:16:26.834Z,96584.40
2023-03-27T00:18:56.133Z,96580.40
2023-03-27T00:21:26.168Z,96570.52
2023-03-27T00:23:54.687Z,96563.60
2023-03-27T00:26:23.388Z,96551.29
2023-03-27T00:28:52.917Z,96534.36
2023-03-27T00:31:21.656Z,96518.41
2023-03-27T00:33:50.236Z,96505.27
2023-03-27T00:36:18.800Z,96491.42
2023-03-27T00:38:47.010Z,96483.27
2023-03-27T00:41:15.204Z,96482.52
2023-03-27T00:43:44.265Z,96478.19
2023-03-27T00:46:15.866Z,96473.40
2023-03-27T00:48:50.163Z,96475.06
2023-03-27T00:51:19.989Z,96474.73
2023-03-27T00:53:49.577Z,96484.27
2023-03-27T00:56:18.191Z,96491.77
2023-03-27T00:58:51.345Z,96501.20
2023-03-27T01:01:22.587Z,96497.38
2023-03-27T01:03:54.051Z,96498.76
2023-03-27T01:06:23.446Z,96502.37
2023-03-27T01:08:52.187Z,96506.13
2023-03-27T01:11:46.641Z,96495.38
2023-03-27T01:14:30.072Z,96484.86
2023-03-27T01:17:23.343Z,96483.34
2023-03-27T01:20:16.877Z,96476.02
2023-03-27T01:23:58.409Z,96472.08
2023-03-27T01:26:37.060Z,96476.48
2023-03-27T01:29:21.570Z,96478.41
2023-03-27T01:32:26.148Z,96477.52
2023-03-27T01:35:08.407Z,96478.45
2023-03-27T01:38:04.694Z,96470.86
2023-03-27T01:40:46.318Z,96467.43
2023-03-27T01:43:23.570Z,96468.78
2023-03-27T01:45:57.497Z,96463.77
2023-03-27T01:48:54.110Z,96463.98
2023-03-27T01:51:28.275Z,96456.11
2023-03-27T01:54:03.985Z,96449.27
2023-03-27T01:56:37.539Z,96451.13
2023-03-27T01:59:19.182Z,96451.73
2023-03-27T02:01:54.327Z,96443.16
2023-03-27T02:04:28.917Z,96438.06
2023-03-27T02:07:07.855Z,96426.51
2023-03-27T02:09:42.777Z,96427.30
2023-03-27T02:12:16.628Z,96416.66
2023-03-27T02:14:53.164Z,96411.23
2023-03-27T02:17:26.801Z,96396.35
2023-03-27T02:20:14.849Z,96388.59
2023-03-27T02:22:46.087Z,96391.50
2023-03-27T02:25:24.368Z,96390.17
2023-03-27T02:28:05.626Z,96391.24
2023-03-27T02:31:06.756Z,96386.47
2023-03-27T02:33:52.199Z,96375.88
2023-03-27T02:36:45.779Z,96372.75
2023-03-27T02:39:38.225Z,96364.07
2023-03-27T02:42:32.716Z,96348.63
2023-03-27T02:45:05.948Z,96345.64
2023-03-27T02:47:41.152Z,96348.32
2023-03-27T02:50:16.561Z,96351.09
2023-03-27T02:52:54.164Z,96353.44
2023-03-27T02:55:26.451Z,96351.16
2023-03-27T02:58:00.553Z,96353.30
2023-03-27T03:00:48.809Z,96352.92
2023-03-27T03:04:02.307Z,96349.20
2023-03-27T03:06:44.717Z,96347.58
2023-03-27T03:09:15.059Z,96347.64
2023-03-27T03:11:54.435Z,96346.77
2023-03-27T03:14:29.479Z,96347.59
2023-03-27T03:16:57.820Z,96349.66
2023-03-27T03:19:26.324Z,96353.23
2023-03-27T03:21:55.854Z,96346.75
2023-03-27T03:24:24.020Z,96343.84
2023-03-27T03:26:52.501Z,96335.30
2023-03-27T03:29:21.025Z,96327.91
2023-03-27T03:32:02.264Z,96326.11
2023-03-27T03:34:30.849Z,96329.77
2023-03-27T03:37:00.555Z,96333.94
2023-03-27T03:39:31.377Z,96323.67
2023-03-27T03:41:59.854Z,96308.17
2023-03-27T03:44:28.680Z,96294.80
2023-03-27T03:46:57.433Z,96288.58
2023-03-27T03:49:27.194Z,96296.95
2023-03-27T03:52:03.644Z,96306.63
2023-03-27T03:54:33.142Z,96301.79
2023-03-27T03:57:03.262Z,96297.85
2023-03-27T03:59:32.332Z,96282.59
2023-03-27T04:02:28.978Z,96274.89
2023-03-27T04:05:10.734Z,96270.20
2023-03-27T04:07:41.335Z,96261.39
2023-03-27T04:10:19.268Z,96247.09
2023-03-27T04:12:48.630Z,96234.30
2023-03-27T04:15:24.823Z,96235.87
2023-03-27T04:18:15.337Z,96241.27
2023-03-27T04:20:49.741Z,96244.21
2023-03-27T04:23:19.078Z,96244.55
2023-03-27T04:25:47.577Z,96236.97
2023-03-27T04:28:23.834Z,96245.42
2023-03-27T04:31:06.658Z,96243.75
2023-03-27T04:33:53.354Z,96244.87
2023-03-27T04:36:42.583Z,96260.09
2023-03-27T04:39:13.181Z,96241.70
2023-03-27T04:41:41.642Z,96223.67
2023-03-27T04:44:10.200Z,96226.62
2023-03-27T04:46:41.596Z,96218.96
2023-03-27T04:49:11.870Z,96203.02
2023-03-27T04:51:48.842Z,96194.86
2023-03-27T04:54:17.327Z,96191.82
2023-03-27T04:56:46.733Z,96190.43
2023-03-27T04:59:15.817Z,96190.62
2023-03-27T05:01:46.974Z,96192.16
2023-03-27T05:04:32.157Z,96189.77
2023-03-27T05:07:12.468Z,96182.94
2023-03-27T05:09:41.071Z,96172.73
2023-03-27T05:12:10.802Z,96170.10
2023-03-27T05:14:48.724Z,96158.93
2023-03-27T05:17:32.733Z,96163.70
2023-03-27T05:20:01.125Z,96167.83
2023-03-27T05:22:29.384Z,96165.92
2023-03-27T05:25:06.460Z,96148.42
2023-03-27T05:27:35.240Z,96142.41
2023-03-27T05:30:04.820Z,96139.56
2023-03-27T05:32:33.035Z,96140.05
2023-03-27T05:35:13.493Z,96137.30
2023-03-27T05:37:52.778Z,96136.75
2023-03-27T05:40:29.197Z,96135.26
2023-03-27T05:42:57.924Z,96138.65
2023-03-27T05:45:29.583Z,96136.52
2023-03-27T05:47:59.783Z,96130.73
2023-03-27T05:50:32.473Z,96139.36
2023-03-27T05:53:03.140Z,96143.87
2023-03-27T05:55:39.059Z,96144.90
2023-03-27T05:58:10.197Z,96141.99
2023-03-27T06:00:42.312Z,96140.64
2023-03-27T06:03:13.170Z,96131.71
2023-03-27T06:06:01.188Z,96133.96
2023-03-27T06:08:35.030Z,96119.88
2023-03-27T06:11:11.713Z,96119.78
2023-03-27T06:13:47.088Z,96110.21
2023-03-27T06:16:20.953Z,96113.57
2023-03-27T06:19:07.636Z,96115.27
2023-03-27T06:21:43.372Z,96115.98
2023-03-27T06:24:11.866Z,96117.13
2023-03-27T06:26:41.468Z,96121.58
2023-03-27T06:29:10.672Z,96122.68
2023-03-27T06:31:44.945Z,96120.61
2023-03-27T06:34:20.635Z,96113.27
2023-03-27T06:37:06.206Z,96116.57
2023-03-27T06:39:41.461Z,96113.15
2023-03-27T06:42:10.127Z,96111.47
2023-03-27T06:44:50.282Z,96100.69
2023-03-27T06:47:54.801Z,96092.02
2023-03-27T06:50:35.424Z,96081.14
2023-03-27T06:53:09.961Z,96073.42
2023-03-27T06:55:46.259Z,96067.42
2023-03-27T06:58:14.576Z,96068.19
2023-03-27T07:00:45.847Z,96067.65
2023-03-27T07:03:34.440Z,96076.66
2023-03-27T07:06:20.501Z,96081.39
2023-03-27T07:08:54.464Z,96083.55
2023-03-27T07:11:22.699Z,96083.36
2023-03-27T07:13:56.021Z,96074.73
2023-03-27T07:16:27.641Z,96070.86
2023-03-27T07:18:58.843Z,96071.42
2023-03-27T07:21:28.580Z,96075.70
2023-03-27T07:23:59.237Z,96082.10
2023-03-27T07:26:33.938Z,96080.15
2023-03-27T07:29:11.654Z,96079.86
2023-03-27T07:31:55.572Z,96079.38
2023-03-27T07:34:35.455Z,96076.54
2023-03-27T07:37:26.048Z,96076.71
2023-03-27T07:40:13.547Z,96076.09
2023-03-27T07:42:48.442Z,96070.39
2023-03-27T07:45:24.246Z,96067.78
2023-03-27T07:48:08.717Z,96063.21
2023-03-27T07:50:38.410Z,96065.61
2023-03-27T07:53:06.804Z,96060.58
2023-03-27T07:55:38.116Z,96056.64
2023-03-27T07:58:08.492Z,96055.77
2023-03-27T08:00:38.929Z,96053.06
2023-03-27T08:03:14.255Z,96050.75
2023-03-27T08:05:57.920Z,96041.65
2023-03-27T08:08:28.513Z,96040.58
2023-03-27T08:10:59.764Z,96040.52
2023-03-27T08:13:31.639Z,96040.79
2023-03-27T08:16:06.065Z,96041.66
2023-03-27T08:18:35.118Z,96038.39
2023-03-27T08:21:05.867Z,96037.98
2023-03-27T08:23:38.156Z,96036.95
2023-03-27T08:26:07.011Z,96029.88
2023-03-27T08:28:41.857Z,96024.63
2023-03-27T08:31:13.924Z,96022.64
2023-03-27T08:33:43.187Z,96018.77
2023-03-27T08:36:15.713Z,96021.71
2023-03-27T08:38:47.030Z,96021.15
2023-03-27T08:41:38.904Z,96015.42
2023-03-27T08:44:25.739Z,96013.73
2023-03-27T08:47:06.995Z,96014.67
2023-03-27T08:49:56.368Z,96013.21
2023-03-27T08:52:32.046Z,96020.83
2023-03-27T08:55:28.838Z,96025.16
2023-03-27T08:58:18.848Z,96023.77
2023-03-27T09:00:58.731Z,96020.05
2023-03-27T09:03:39.123Z,96007.98
2023-03-27T09:06:27.057Z,96004.48
2023-03-27T09:09:11.689Z,96010.36
2023-03-27T09:11:52.141Z,96007.64
2023-03-27T09:14:35.662Z,96013.08
2023-03-27T09:17:31.806Z,96014.36
2023-03-27T09:20:20.870Z,96006.42
2023-03-27T09:22:55.299Z,96002.52
2023-03-27T09:25:56.795Z,95997.13
2023-03-27T09:28:51.743Z,95995.27
2023-03-27T09:31:29.323Z,95993.22
2023-03-27T09:34:02.529Z,95995.75
2023-03-27T09:36:31.524Z,95988.98
2023-03-27T09:39:08.140Z,95982.05
2023-03-27T09:41:46.745Z,95974.22
2023-03-27T09:44:25.664Z,95964.59
2023-03-27T09:47:04.873Z,95957.04
2023-03-27T09:49:34.912Z,95955.44
2023-03-27T09:52:07.993Z,95953.92
2023-03-27T09:54:54.315Z,95962.72
2023-03-27T09:57:36.074Z,95965.09
2023-03-27T10:00:27.514Z,95963.42
2023-03-27T10:03:16.744Z,95959.39
2023-03-27T10:05:49.945Z,95957.73
2023-03-27T10:08:31.429Z,95950.68
2023-03-27T10:11:09.127Z,95947.94
2023-03-27T10:13:51.260Z,95943.93
2023-03-27T10:16:23.033Z,95940.65
2023-03-27T10:19:04.557Z,95931.48
2023-03-27T10:21:42.757Z,95934.12
2023-03-27T10:24:36.055Z,95942.16
2023-03-27T10:27:31.352Z,95942.59
2023-03-27T10:30:33.450Z,95942.27
2023-03-27T10:33:36.764Z,95936.97
2023-03-27T10:36:25.984Z,95928.52
2023-03-27T10:39:02.259Z,95912.32
2023-03-27T10:41:48.133Z,95905.34
2023-03-27T10:44:25.906Z,95903.06
2023-03-27T10:46:57.293Z,95898.37
2023-03-27T10:49:48.898Z,95895.81
2023-03-27T10:52:37.352Z,95900.39
2023-03-27T10:55:44.553Z,95908.33
2023-03-27T10:58:23.791Z,95915.48
2023-03-27T11:01:04.743Z,95920.20
2023-03-27T11:03:51.761Z,95911.42
2023-03-27T11:06:27.405Z,95901.96
2023-03-27T11:09:36.561Z,95897.80
2023-03-27T11:12:16.888Z,95892.10
2023-03-27T11:15:10.282Z,95886.67
2023-03-27T11:17:46.172Z,95880.05
2023-03-27T11:20:28.172Z,95881.92
2023-03-27T11:23:30.101Z,95883.19
2023-03-27T11:26:19.912Z,95885.18
2023-03-27T11:29:23.547Z,95874.58
2023-03-27T11:32:03.794Z,95869.59
2023-03-27T11:35:04.253Z,95867.02
2023-03-27T11:37:50.347Z,95856.06
2023-03-27T11:40:39.556Z,95850.00
2023-03-27T11:43:12.810Z,95838.05
2023-03-27T11:45:47.546Z,95830.16
2023-03-27T11:48:33.204Z,95827.02
2023-03-27T11:51:04.450Z,95820.68
2023-03-27T11:53:51.682Z,95821.82
2023-03-27T11:56:58.077Z,95813.39
2023-03-27T12:00:27.964Z,95811.28
2023-03-27T12:03:13.581Z,95807.90
2023-03-27T12:06:00.149Z,95809.02
2023-03-27T12:08:45.473Z,95809.44
2023-03-27T12:11:14.308Z,95810.45
2023-03-27T12:14:17.657Z,95809.39
2023-03-27T12:17:32.240Z,95803.02
2023-03-27T12:20:19.406Z,95797.73
2023-03-27T12:23:25.666Z,95795.21
2023-03-27T12:26:40.501Z,95787.77
2023-03-27T12:29:43.326Z,95795.86
2023-03-27T12:32:24.664Z,95795.05
2023-03-27T12:34:56.572Z,95805.23
2023-03-27T12:37:34.631Z,95812.15
2023-03-27T12:40:22.213Z,95811.70
2023-03-27T12:42:53.110Z,95811.68
2023-03-27T12:45:27.474Z,95807.38
2023-03-27T12:48:19.880Z,95808.15
2023-03-27T12:50:52.246Z,95806.73
2023-03-27T12:53:29.642Z,95799.95
2023-03-27T12:56:13.259Z,95796.51
2023-03-27T12:58:41.796Z,95795.20
2023-03-27T13:01:51.582Z,95797.41
2023-03-27T13:05:16.390Z,95797.60
2023-03-27T13:08:11.625Z,95793.27
2023-03-27T13:11:39.800Z,95797.60
2023-03-27T13:14:09.722Z,95791.95
2023-03-27T13:17:00.547Z,95789.48
2023-03-27T13:19:42.350Z,95789.86
2023-03-27T13:22:19.010Z,95788.75
2023-03-27T13:25:00.607Z,95785.73
2023-03-27T13:27:44.111Z,95785.02
2023-03-27T13:30:48.182Z,95782.19
2023-03-27T13:33:48.100Z,95779.20
2023-03-27T13:36:29.947Z,95778.48
2023-03-27T13:39:00.130Z,95778.19
2023-03-27T13:41:45.270Z,95785.09
2023-03-27T13:44:30.857Z,95779.48
2023-03-27T13:47:02.386Z,95780.56
2023-03-27T13:50:03.084Z,95776.31
2023-03-27T13:52:57.055Z,95778.58
2023-03-27T13:56:02.598Z,95777.02
2023-03-27T13:59:21.918Z,95781.77
2023-03-27T14:02:14.964Z,95783.76
2023-03-27T14:04:54.210Z,95786.17
2023-03-27T14:07:41.485Z,95782.95
2023-03-27T14:10:33.620Z,95772.77
2023-03-27T14:13:31.998Z,95728.73
2023-03-27T14:16:12.382Z,95734.53
2023-03-27T14:19:04.694Z,95754.41
2023-03-27T14:21:52.374Z,95757.39
2023-03-27T14:24:47.391Z,95752.16
2023-03-27T14:27:28.337Z,95740.73
2023-03-27T14:30:26.499Z,95742.09
2023-03-27T14:33:34.622Z,95742.46
2023-03-27T14:36:05.608Z,95736.77
2023-03-27T14:38:37.489Z,95724.13
2023-03-27T14:41:18.739Z,95722.77
2023-03-27T14:43:54.036Z,95732.52
2023-03-27T14:46:24.208Z,95741.73
2023-03-27T14:48:56.887Z,95743.30
2023-03-27T14:51:37.134Z,95746.79
2023-03-27T14:54:16.998Z,95746.58
2023-03-27T14:56:57.334Z,95742.39
2023-03-27T14:59:37.213Z,95739.84
2023-03-27T15:02:32.685Z,95740.84
2023-03-27T15:05:15.245Z,95742.02
2023-03-27T15:07:49.142Z,95742.15
2023-03-27T15:10:31.915Z,95745.92
2023-03-27T15:13:35.898Z,95741.05
2023-03-27T15:16:06.748Z,95739.23
2023-03-27T15:19:05.109Z,95740.88
2023-03-27T15:21:49.574Z,95742.08
2023-03-27T15:24:31.749Z,95745.29
2023-03-27T15:27:01.800Z,95745.47
2023-03-27T15:29:48.446Z,95748.60
2023-03-27T15:32:22.278Z,95756.09
2023-03-27T15:34:58.073Z,95760.36
2023-03-27T15:37:31.971Z,95767.02
2023-03-27T15:40:00.600Z,95766.41
2023-03-27T15:42:48.254Z,95770.96
2023-03-27T15:45:19.044Z,95772.84
2023-03-27T15:48:06.803Z,95777.03
2023-03-27T15:50:35.226Z,95785.71
2023-03-27T15:53:03.685Z,95787.64
2023-03-27T15:55:41.019Z,95794.05
2023-03-27T15:58:27.178Z,95801.10
2023-03-27T16:01:02.105Z,95803.48
2023-03-27T16:03:34.590Z,95813.13
2023-03-27T16:06:05.018Z,95823.06
2023-03-27T16:08:41.368Z,95824.02
2023-03-27T16:11:12.607Z,95828.23
2023-03-27T16:13:54.801Z,95830.20
2023-03-27T16:16:26.112Z,95832.09
2023-03-27T16:18:58.005Z,95839.68
2023-03-27T16:21:27.851Z,95840.82
2023-03-27T16:23:56.715Z,95839.80
2023-03-27T16:26:30.686Z,95838.30
2023-03-27T16:29:03.508Z,95836.17
2023-03-27T16:31:31.765Z,95836.90
2023-03-27T16:34:00.368Z,95840.48
2023-03-27T16:36:31.322Z,95840.55
2023-03-27T16:38:59.846Z,95839.96
2023-03-27T16:41:28.365Z,95831.92
2023-03-27T16:43:56.588Z,95822.84
2023-03-27T16:46:27.972Z,95820.59
2023-03-27T16:48:56.840Z,95821.56
2023-03-27T16:51:26.754Z,95822.44
2023-03-27T16:53:55.367Z,95821.96
2023-03-27T16:56:24.478Z,95822.65
2023-03-27T16:58:52.775Z,95822.09
2023-03-27T17:01:24.061Z,95822.37
2023-03-27T17:03:52.777Z,95822.02
2023-03-27T17:06:22.833Z,95818.51
2023-03-27T17:08:55.755Z,95824.82
2023-03-27T17:11:24.496Z,95823.82
2023-03-27T17:13:52.862Z,95824.48
2023-03-27T17:16:21.384Z,95831.16
2023-03-27T17:18:50.105Z,95833.90
2023-03-27T17:21:18.478Z,95836.53
2023-03-27T17:23:48.827Z,95839.58
2023-03-27T17:26:27.022Z,95836.90
2023-03-27T17:28:56.231Z,95835.13
2023-03-27T17:31:25.008Z,95838.08
2023-03-27T17:33:53.376Z,95836.15
2023-03-27T17:36:33.093Z,95836.65
2023-03-27T17:39:08.229Z,95834.89
2023-03-27T17:41:36.431Z,95840.86
2023-03-27T17:44:06.975Z,95847.45
2023-03-27T17:46:37.409Z,95849.80
2023-03-27T17:49:05.561Z,95850.71
2023-03-27T17:51:35.591Z,95849.21
2023-03-27T17:54:04.786Z,95851.15
2023-03-27T17:56:32.886Z,95852.01
2023-03-27T17:59:01.239Z,95851.66
2023-03-27T18:01:29.339Z,95855.10
2023-03-27T18:04:00.678Z,95853.89
2023-03-27T18:06:29.229Z,95853.39
2023-03-27T18:08:58.271Z,95856.66
2023-03-27T18:11:26.742Z,95862.33
2023-03-27T18:13:54.863Z,95863.06
2023-03-27T18:16:23.519Z,95865.25
2023-03-27T18:18:54.320Z,95865.20
2023-03-27T18:21:22.777Z,95866.59
2023-03-27T18:23:53.474Z,95864.08
2023-03-27T18:26:22.857Z,95864.71
2023-03-27T18:28:52.447Z,95864.31
2023-03-27T18:31:21.170Z,95864.68
2023-03-27T18:33:49.463Z,95869.63
2023-03-27T18:36:17.680Z,95870.02
2023-03-27T18:38:47.724Z,95867.80
2023-03-27T18:41:17.462Z,95862.98
2023-03-27T18:43:45.714Z,95865.06
2023-03-27T18:46:16.958Z,95869.89
2023-03-27T18:48:49.059Z,95872.23
2023-03-27T18:51:18.933Z,95876.48
2023-03-27T18:53:47.143Z,95884.34
2023-03-27T18:56:16.844Z,95887.27
2023-03-27T18:58:45.056Z,95884.70
2023-03-27T19:01:13.275Z,95887.03
2023-03-27T19:03:42.402Z,95884.69
2023-03-27T19:06:12.341Z,95885.95
2023-03-27T19:08:42.520Z,95891.48
2023-03-27T19:11:11.103Z,95898.25
2023-03-27T19:14:14.760Z,95900.19
2023-03-27T19:17:05.681Z,95904.91
2023-03-27T19:19:43.029Z,95904.83
2023-03-27T19:22:36.085Z,95908.02
2023-03-27T19:25:16.618Z,95909.26
2023-03-27T19:27:44.681Z,95911.04
2023-03-27T19:30:14.441Z,95911.05
2023-03-27T19:32:42.732Z,95902.46
2023-03-27T19:35:10.929Z,95904.10
2023-03-27T19:37:39.153Z,95904.41
2023-03-27T19:40:09.600Z,95909.48
2023-03-27T19:42:37.741Z,95908.98
2023-03-27T19:45:06.661Z,95904.88
2023-03-27T19:47:35.240Z,95904.55
2023-03-27T19:50:05.004Z,95910.08
2023-03-27T19:53:05.178Z,95906.94
2023-03-27T19:55:37.772Z,95907.18
2023-03-27T19:58:06.189Z,95906.17
2023-03-27T20:00:38.498Z,95903.20
2023-03-27T20:03:10.355Z,95907.81
2023-03-27T20:05:47.592Z,95910.05
2023-03-27T20:08:16.801Z,95907.67
2023-03-27T20:10:47.628Z,95908.42
2023-03-27T20:13:20.026Z,95908.09
2023-03-27T20:15:50.650Z,95908.73
2023-03-27T20:18:20.068Z,95908.05
2023-03-27T20:20:50.394Z,95908.19
2023-03-27T20:23:18.855Z,95910.55
2023-03-27T20:25:51.720Z,95910.16
2023-03-27T20:28:19.873Z,95915.29
2023-03-27T20:30:48.375Z,95925.66
2023-03-27T20:33:16.559Z,95928.13
2023-03-27T20:35:45.059Z,95935.43
2023-03-27T20:38:13.931Z,95937.66
2023-03-27T20:40:53.377Z,95925.36
2023-03-27T20:43:31.068Z,95952.30
2023-03-27T20:46:00.109Z,95973.44
2023-03-27T20:48:40.429Z,95975.33
2023-03-27T20:51:14.902Z,95969.38
2023-03-27T20:53:45.852Z,95986.11
2023-03-27T20:56:14.372Z,96002.67
2023-03-27T20:58:42.512Z,96000.83
2023-03-27T21:01:11.470Z,96016.11
2023-03-27T21:03:46.107Z,96029.45
2023-03-27T21:06:17.028Z,96033.80
2023-03-27T21:08:46.594Z,96042.68
2023-03-27T21:11:15.366Z,96058.67
2023-03-27T21:13:46.371Z,96062.64
2023-03-27T21:16:14.804Z,96056.29
2023-03-27T21:18:43.258Z,96051.86
2023-03-27T21:21:11.374Z,96060.69
2023-03-27T21:23:39.716Z,96062.07
2023-03-27T21:26:07.884Z,96064.27
2023-03-27T21:28:36.220Z,96071.82
2023-03-27T21:31:09.113Z,96087.18
2023-03-27T21:33:38.538Z,96094.08
2023-03-27T21:36:07.129Z,96096.83
2023-03-27T21:38:35.496Z,96110.09
2023-03-27T21:41:04.257Z,96111.31
2023-03-27T21:43:33.038Z,96114.42
2023-03-27T21:46:03.734Z,96116.52
2023-03-27T21:48:32.483Z,96128.63
2023-03-27T21:51:06.398Z,96126.00
2023-03-27T21:53:36.416Z,96134.46
2023-03-27T21:56:05.104Z,96134.60
2023-03-27T21:58:33.986Z,96139.09
2023-03-27T22:01:02.151Z,96146.69
2023-03-27T22:03:30.853Z,96149.10
2023-03-27T22:06:12.308Z,96156.93
2023-03-27T22:08:43.135Z,96151.30
2023-03-27T22:11:12.514Z,96155.39
2023-03-27T22:13:42.013Z,96164.38
2023-03-27T22:16:12.116Z,96178.64
2023-03-27T22:18:40.892Z,96182.69
2023-03-27T22:21:22.952Z,96196.77
2023-03-27T22:23:52.576Z,96202.55
2023-03-27T22:26:23.923Z,96208.46
2023-03-27T22:28:52.752Z,96219.03
2023-03-27T22:31:22.569Z,96228.59
2023-03-27T22:33:51.179Z,96236.83
2023-03-27T22:36:19.898Z,96238.92
2023-03-27T22:38:49.161Z,96246.33
2023-03-27T22:41:18.056Z,96252.14
2023-03-27T22:43:49.303Z,96247.81
2023-03-27T22:46:21.058Z,96254.88
2023-03-27T22:48:59.082Z,96261.26
2023-03-27T22:51:29.363Z,96271.20
2023-03-27T22:53:58.085Z,96283.16
2023-03-27T22:56:26.279Z,96280.51
2023-03-27T22:58:54.443Z,96289.04
2023-03-27T23:01:22.900Z,96289.75
2023-03-27T23:03:51.252Z,96299.53
2023-03-27T23:06:22.497Z,96289.33
2023-03-27T23:08:51.378Z,96298.84
2023-03-27T23:11:22.931Z,96313.49
2023-03-27T23:13:51.162Z,96322.77
2023-03-27T23:16:19.540Z,96326.23
2023-03-27T23:18:48.013Z,96329.31
2023-03-27T23:21:18.018Z,96322.98
2023-03-27T23:23:46.853Z,96318.56
2023-03-27T23:26:15.529Z,96323.88
2023-03-27T23:28:44.190Z,96333.98
2023-03-27T23:31:18.452Z,96327.04
2023-03-27T23:33:49.240Z,96340.36
2023-03-27T23:36:23.685Z,96346.44
2023-03-27T23:38:53.158Z,96350.20
2023-03-27T23:41:21.531Z,96347.05
2023-03-27T23:43:50.019Z,96359.13
2023-03-27T23:46:18.470Z,96369.02
2023-03-27T23:48:46.973Z,96362.45
2023-03-27T23:51:16.604Z,96360.46
2023-03-27T23:53:44.858Z,96371.45
2023-03-27T23:56:13.023Z,96384.45
2023-03-27T23:58:41.207Z,96382.44
